Bartlett, Texas
Current Conditions -  °F | °C
As of 9:55 PM on Wednesday 22 Oct 2014 (Local Time) from KGRK Reporting Station
Broken Clouds Broken Clouds  
Wind Chill: 73°   Ceiling: 12000
Heat Index: 73°   Visibility: 7mi
Dew Point: 59°   Wind: 8mph
Humidity: 61%   Direction: 100°E
Pressure: 30.11"   Gusts: NA
Location:  30.79°N, 97.43°W
Report Text: KGRK 230255Z 10007KT 7SM BKN120 BKN200 23/15 A3011 RMK SLP194 52010
Loading
Personal Weather Stations






























Interactive Weather Map
Tropical Storm Tracking
New forecast layout! Learn more

10-Day Weather Forecast

Advertisements
Track Severe Weather on mobile